sensor_id;sensor_type;location;lat;lon;timestamp;P1;durP1;ratioP1;P2;durP2;ratioP2
12900;SDS011;6518;50.930;5.344;2022-12-19T00:01:06;29.90;;;18.50;;
12900;SDS011;6518;50.930;5.344;2022-12-19T00:03:40;32.50;;;18.87;;
12900;SDS011;6518;50.930;5.344;2022-12-19T00:06:07;32.37;;;19.13;;
12900;SDS011;6518;50.930;5.344;2022-12-19T00:08:34;30.93;;;18.70;;
12900;SDS011;6518;50.930;5.344;2022-12-19T00:11:03;28.93;;;17.93;;
12900;SDS011;6518;50.930;5.344;2022-12-19T00:13:30;33.40;;;18.77;;
12900;SDS011;6518;50.930;5.344;2022-12-19T00:16:00;28.33;;;18.10;;
12900;SDS011;6518;50.930;5.344;2022-12-19T00:18:28;30.73;;;18.30;;
12900;SDS011;6518;50.930;5.344;2022-12-19T00:20:59;29.43;;;18.33;;
12900;SDS011;6518;50.930;5.344;2022-12-19T00:23:28;29.43;;;18.07;;
12900;SDS011;6518;50.930;5.344;2022-12-19T00:26:06;27.87;;;17.50;;
12900;SDS011;6518;50.930;5.344;2022-12-19T00:28:34;28.03;;;16.97;;
12900;SDS011;6518;50.930;5.344;2022-12-19T00:31:01;30.53;;;18.00;;
12900;SDS011;6518;50.930;5.344;2022-12-19T00:33:29;27.20;;;16.97;;
12900;SDS011;6518;50.930;5.344;2022-12-19T00:35:56;29.80;;;17.73;;
12900;SDS011;6518;50.930;5.344;2022-12-19T00:38:24;29.00;;;17.60;;
12900;SDS011;6518;50.930;5.344;2022-12-19T00:40:51;31.93;;;17.90;;
12900;SDS011;6518;50.930;5.344;2022-12-19T00:43:20;27.60;;;17.30;;
12900;SDS011;6518;50.930;5.344;2022-12-19T00:45:47;29.23;;;18.03;;
12900;SDS011;6518;50.930;5.344;2022-12-19T00:48:13;28.70;;;17.33;;
12900;SDS011;6518;50.930;5.344;2022-12-19T00:50:40;27.43;;;16.17;;
12900;SDS011;6518;50.930;5.344;2022-12-19T00:53:07;26.37;;;17.50;;
12900;SDS011;6518;50.930;5.344;2022-12-19T00:55:36;26.37;;;16.77;;
12900;SDS011;6518;50.930;5.344;2022-12-19T00:58:03;29.27;;;17.17;;
12900;SDS011;6518;50.930;5.344;2022-12-19T01:00:32;27.10;;;16.10;;
12900;SDS011;6518;50.930;5.344;2022-12-19T01:02:58;25.73;;;16.63;;
12900;SDS011;6518;50.930;5.344;2022-12-19T01:05:26;22.50;;;14.43;;
12900;SDS011;6518;50.930;5.344;2022-12-19T01:07:52;26.57;;;15.77;;
12900;SDS011;6518;50.930;5.344;2022-12-19T01:10:19;24.43;;;15.60;;
12900;SDS011;6518;50.930;5.344;2022-12-19T01:12:46;27.17;;;15.73;;
12900;SDS011;6518;50.930;5.344;2022-12-19T01:15:13;24.07;;;16.17;;
12900;SDS011;6518;50.930;5.344;2022-12-19T01:17:42;23.70;;;14.90;;
12900;SDS011;6518;50.930;5.344;2022-12-19T01:20:10;22.37;;;14.67;;
12900;SDS011;6518;50.930;5.344;2022-12-19T01:22:38;23.30;;;14.97;;
12900;SDS011;6518;50.930;5.344;2022-12-19T01:25:06;24.13;;;14.97;;
12900;SDS011;6518;50.930;5.344;2022-12-19T01:27:43;24.10;;;14.53;;
12900;SDS011;6518;50.930;5.344;2022-12-19T01:30:10;25.23;;;15.30;;
12900;SDS011;6518;50.930;5.344;2022-12-19T01:32:38;22.73;;;14.40;;
12900;SDS011;6518;50.930;5.344;2022-12-19T01:35:09;20.10;;;13.30;;
12900;SDS011;6518;50.930;5.344;2022-12-19T01:37:40;22.70;;;14.23;;
12900;SDS011;6518;50.930;5.344;2022-12-19T01:40:08;24.87;;;14.70;;
12900;SDS011;6518;50.930;5.344;2022-12-19T01:42:36;22.80;;;14.13;;
12900;SDS011;6518;50.930;5.344;2022-12-19T01:45:04;22.33;;;13.80;;
12900;SDS011;6518;50.930;5.344;2022-12-19T01:47:49;22.13;;;13.40;;
12900;SDS011;6518;50.930;5.344;2022-12-19T01:50:25;21.80;;;14.30;;
12900;SDS011;6518;50.930;5.344;2022-12-19T01:52:57;19.87;;;13.43;;
12900;SDS011;6518;50.930;5.344;2022-12-19T01:55:26;22.47;;;13.70;;
12900;SDS011;6518;50.930;5.344;2022-12-19T01:57:53;21.63;;;13.90;;
12900;SDS011;6518;50.930;5.344;2022-12-19T02:00:24;24.70;;;15.27;;
12900;SDS011;6518;50.930;5.344;2022-12-19T02:02:51;22.47;;;13.93;;
12900;SDS011;6518;50.930;5.344;2022-12-19T02:05:24;25.17;;;15.30;;
12900;SDS011;6518;50.930;5.344;2022-12-19T02:07:52;22.20;;;14.47;;
12900;SDS011;6518;50.930;5.344;2022-12-19T02:10:19;22.13;;;13.83;;
12900;SDS011;6518;50.930;5.344;2022-12-19T02:12:46;22.83;;;14.77;;
12900;SDS011;6518;50.930;5.344;2022-12-19T02:15:13;20.67;;;13.33;;
12900;SDS011;6518;50.930;5.344;2022-12-19T02:17:51;22.60;;;14.37;;
12900;SDS011;6518;50.930;5.344;2022-12-19T02:23:32;23.07;;;14.20;;
12900;SDS011;6518;50.930;5.344;2022-12-19T02:26:47;24.37;;;13.53;;
12900;SDS011;6518;50.930;5.344;2022-12-19T02:29:31;26.20;;;15.47;;
12900;SDS011;6518;50.930;5.344;2022-12-19T02:32:15;22.60;;;13.17;;
12900;SDS011;6518;50.930;5.344;2022-12-19T02:34:46;22.80;;;14.70;;
12900;SDS011;6518;50.930;5.344;2022-12-19T02:37:19;25.07;;;14.03;;
12900;SDS011;6518;50.930;5.344;2022-12-19T02:39:53;23.93;;;14.57;;
12900;SDS011;6518;50.930;5.344;2022-12-19T02:42:24;26.97;;;14.60;;
12900;SDS011;6518;50.930;5.344;2022-12-19T02:44:54;22.00;;;14.80;;
12900;SDS011;6518;50.930;5.344;2022-12-19T02:47:24;21.27;;;13.43;;
12900;SDS011;6518;50.930;5.344;2022-12-19T02:49:53;20.20;;;13.80;;
12900;SDS011;6518;50.930;5.344;2022-12-19T02:55:10;27.93;;;15.17;;
12900;SDS011;6518;50.930;5.344;2022-12-19T02:57:39;25.27;;;13.97;;
12900;SDS011;6518;50.930;5.344;2022-12-19T03:00:18;25.43;;;14.37;;
12900;SDS011;6518;50.930;5.344;2022-12-19T03:02:53;23.83;;;15.03;;
12900;SDS011;6518;50.930;5.344;2022-12-19T03:05:28;21.03;;;13.43;;
12900;SDS011;6518;50.930;5.344;2022-12-19T03:08:00;19.93;;;13.70;;
12900;SDS011;6518;50.930;5.344;2022-12-19T03:10:34;23.53;;;13.90;;
12900;SDS011;6518;50.930;5.344;2022-12-19T03:13:06;19.53;;;12.87;;
12900;SDS011;6518;50.930;5.344;2022-12-19T03:15:37;21.93;;;14.10;;
12900;SDS011;6518;50.930;5.344;2022-12-19T03:18:07;21.90;;;14.00;;
12900;SDS011;6518;50.930;5.344;2022-12-19T03:20:36;21.60;;;13.83;;
12900;SDS011;6518;50.930;5.344;2022-12-19T03:23:09;22.10;;;13.57;;
12900;SDS011;6518;50.930;5.344;2022-12-19T03:25:36;20.77;;;12.93;;
12900;SDS011;6518;50.930;5.344;2022-12-19T03:28:06;20.70;;;12.90;;
12900;SDS011;6518;50.930;5.344;2022-12-19T03:30:39;20.60;;;13.07;;
12900;SDS011;6518;50.930;5.344;2022-12-19T03:33:09;19.33;;;12.43;;
12900;SDS011;6518;50.930;5.344;2022-12-19T03:35:38;18.93;;;12.27;;
12900;SDS011;6518;50.930;5.344;2022-12-19T03:38:08;19.77;;;12.13;;
12900;SDS011;6518;50.930;5.344;2022-12-19T03:40:37;17.80;;;11.70;;
12900;SDS011;6518;50.930;5.344;2022-12-19T03:43:06;18.90;;;12.63;;
12900;SDS011;6518;50.930;5.344;2022-12-19T03:45:35;17.50;;;12.00;;
12900;SDS011;6518;50.930;5.344;2022-12-19T03:48:12;20.37;;;12.63;;
12900;SDS011;6518;50.930;5.344;2022-12-19T03:50:46;16.43;;;11.27;;
12900;SDS011;6518;50.930;5.344;2022-12-19T03:53:23;18.57;;;11.97;;
12900;SDS011;6518;50.930;5.344;2022-12-19T03:55:57;16.90;;;11.67;;
12900;SDS011;6518;50.930;5.344;2022-12-19T03:58:31;18.03;;;11.60;;
12900;SDS011;6518;50.930;5.344;2022-12-19T04:01:01;16.90;;;12.03;;
12900;SDS011;6518;50.930;5.344;2022-12-19T04:03:31;15.60;;;11.27;;
12900;SDS011;6518;50.930;5.344;2022-12-19T04:05:58;20.27;;;12.13;;
12900;SDS011;6518;50.930;5.344;2022-12-19T04:08:26;16.00;;;11.27;;
12900;SDS011;6518;50.930;5.344;2022-12-19T04:10:56;15.80;;;11.50;;
12900;SDS011;6518;50.930;5.344;2022-12-19T04:13:29;16.10;;;11.00;;
12900;SDS011;6518;50.930;5.344;2022-12-19T04:15:59;18.77;;;11.50;;
12900;SDS011;6518;50.930;5.344;2022-12-19T04:18:35;14.77;;;10.63;;
12900;SDS011;6518;50.930;5.344;2022-12-19T04:21:04;18.00;;;11.20;;
12900;SDS011;6518;50.930;5.344;2022-12-19T04:23:37;19.67;;;12.20;;
12900;SDS011;6518;50.930;5.344;2022-12-19T04:26:07;16.47;;;10.80;;
12900;SDS011;6518;50.930;5.344;2022-12-19T04:28:37;16.13;;;11.40;;
12900;SDS011;6518;50.930;5.344;2022-12-19T04:31:09;15.33;;;10.67;;
12900;SDS011;6518;50.930;5.344;2022-12-19T04:33:40;14.53;;;11.00;;
12900;SDS011;6518;50.930;5.344;2022-12-19T04:36:07;18.07;;;11.30;;
12900;SDS011;6518;50.930;5.344;2022-12-19T04:38:36;13.67;;;10.37;;
12900;SDS011;6518;50.930;5.344;2022-12-19T04:41:03;15.57;;;10.90;;
12900;SDS011;6518;50.930;5.344;2022-12-19T04:43:30;16.17;;;10.77;;
12900;SDS011;6518;50.930;5.344;2022-12-19T04:45:57;15.50;;;10.50;;
12900;SDS011;6518;50.930;5.344;2022-12-19T04:48:24;14.13;;;10.03;;
12900;SDS011;6518;50.930;5.344;2022-12-19T04:50:53;12.10;;;9.30;;
12900;SDS011;6518;50.930;5.344;2022-12-19T04:53:21;12.70;;;9.50;;
12900;SDS011;6518;50.930;5.344;2022-12-19T04:55:48;16.20;;;9.37;;
12900;SDS011;6518;50.930;5.344;2022-12-19T04:58:15;13.13;;;9.50;;
12900;SDS011;6518;50.930;5.344;2022-12-19T05:00:41;11.20;;;8.80;;
12900;SDS011;6518;50.930;5.344;2022-12-19T05:03:08;11.73;;;9.10;;
12900;SDS011;6518;50.930;5.344;2022-12-19T05:05:35;12.80;;;8.70;;
12900;SDS011;6518;50.930;5.344;2022-12-19T05:08:04;10.87;;;8.23;;
12900;SDS011;6518;50.930;5.344;2022-12-19T05:10:31;11.90;;;8.67;;
12900;SDS011;6518;50.930;5.344;2022-12-19T05:12:58;10.20;;;8.43;;
12900;SDS011;6518;50.930;5.344;2022-12-19T05:15:25;9.97;;;8.20;;
12900;SDS011;6518;50.930;5.344;2022-12-19T05:17:52;10.83;;;8.20;;
12900;SDS011;6518;50.930;5.344;2022-12-19T05:20:19;9.50;;;7.77;;
12900;SDS011;6518;50.930;5.344;2022-12-19T05:22:46;12.37;;;8.23;;
12900;SDS011;6518;50.930;5.344;2022-12-19T05:25:14;10.10;;;8.33;;
12900;SDS011;6518;50.930;5.344;2022-12-19T05:27:41;10.17;;;8.13;;
12900;SDS011;6518;50.930;5.344;2022-12-19T05:30:08;10.87;;;7.67;;
12900;SDS011;6518;50.930;5.344;2022-12-19T05:32:36;9.80;;;7.60;;
12900;SDS011;6518;50.930;5.344;2022-12-19T05:35:03;10.77;;;8.27;;
12900;SDS011;6518;50.930;5.344;2022-12-19T05:37:30;9.70;;;7.60;;
12900;SDS011;6518;50.930;5.344;2022-12-19T05:39:57;10.90;;;8.00;;
12900;SDS011;6518;50.930;5.344;2022-12-19T05:42:25;9.33;;;7.27;;
12900;SDS011;6518;50.930;5.344;2022-12-19T05:44:52;9.47;;;7.33;;
12900;SDS011;6518;50.930;5.344;2022-12-19T05:47:19;11.70;;;7.47;;
12900;SDS011;6518;50.930;5.344;2022-12-19T05:49:46;7.40;;;6.60;;
12900;SDS011;6518;50.930;5.344;2022-12-19T05:52:13;8.27;;;6.70;;
12900;SDS011;6518;50.930;5.344;2022-12-19T05:54:40;8.43;;;6.73;;
12900;SDS011;6518;50.930;5.344;2022-12-19T05:57:07;9.80;;;6.93;;
12900;SDS011;6518;50.930;5.344;2022-12-19T05:59:35;11.23;;;6.87;;
12900;SDS011;6518;50.930;5.344;2022-12-19T06:02:02;7.87;;;6.77;;
12900;SDS011;6518;50.930;5.344;2022-12-19T06:04:29;9.97;;;6.90;;
12900;SDS011;6518;50.930;5.344;2022-12-19T06:06:56;10.13;;;7.23;;
12900;SDS011;6518;50.930;5.344;2022-12-19T06:09:23;9.50;;;7.13;;
12900;SDS011;6518;50.930;5.344;2022-12-19T06:11:51;9.83;;;7.33;;
12900;SDS011;6518;50.930;5.344;2022-12-19T06:14:18;9.27;;;6.83;;
12900;SDS011;6518;50.930;5.344;2022-12-19T06:16:46;8.73;;;6.70;;
12900;SDS011;6518;50.930;5.344;2022-12-19T06:19:13;9.33;;;6.47;;
12900;SDS011;6518;50.930;5.344;2022-12-19T06:21:40;7.90;;;6.90;;
12900;SDS011;6518;50.930;5.344;2022-12-19T06:24:07;10.93;;;7.70;;
12900;SDS011;6518;50.930;5.344;2022-12-19T06:26:35;11.37;;;7.10;;
12900;SDS011;6518;50.930;5.344;2022-12-19T06:29:02;8.57;;;6.30;;
12900;SDS011;6518;50.930;5.344;2022-12-19T06:31:29;9.17;;;6.83;;
12900;SDS011;6518;50.930;5.344;2022-12-19T06:33:57;8.80;;;6.83;;
12900;SDS011;6518;50.930;5.344;2022-12-19T06:36:24;7.10;;;6.40;;
12900;SDS011;6518;50.930;5.344;2022-12-19T06:38:53;9.83;;;7.10;;
12900;SDS011;6518;50.930;5.344;2022-12-19T06:41:21;10.93;;;6.63;;
12900;SDS011;6518;50.930;5.344;2022-12-19T06:44:08;7.70;;;6.60;;
12900;SDS011;6518;50.930;5.344;2022-12-19T06:46:36;10.50;;;7.40;;
12900;SDS011;6518;50.930;5.344;2022-12-19T06:49:06;10.20;;;7.13;;
12900;SDS011;6518;50.930;5.344;2022-12-19T06:51:34;11.57;;;7.77;;
12900;SDS011;6518;50.930;5.344;2022-12-19T06:54:02;8.60;;;6.77;;
12900;SDS011;6518;50.930;5.344;2022-12-19T06:56:32;8.37;;;6.50;;
12900;SDS011;6518;50.930;5.344;2022-12-19T06:59:00;8.70;;;6.47;;
12900;SDS011;6518;50.930;5.344;2022-12-19T07:01:29;9.20;;;6.67;;
12900;SDS011;6518;50.930;5.344;2022-12-19T07:04:04;7.73;;;6.60;;
12900;SDS011;6518;50.930;5.344;2022-12-19T07:06:36;9.83;;;6.50;;
12900;SDS011;6518;50.930;5.344;2022-12-19T07:09:04;9.10;;;6.93;;
12900;SDS011;6518;50.930;5.344;2022-12-19T07:11:31;10.17;;;7.23;;
12900;SDS011;6518;50.930;5.344;2022-12-19T07:13:58;6.83;;;6.10;;
12900;SDS011;6518;50.930;5.344;2022-12-19T07:16:25;7.60;;;6.20;;
12900;SDS011;6518;50.930;5.344;2022-12-19T07:18:53;9.90;;;6.07;;
12900;SDS011;6518;50.930;5.344;2022-12-19T07:21:22;9.23;;;7.03;;
12900;SDS011;6518;50.930;5.344;2022-12-19T07:23:50;9.47;;;6.97;;
12900;SDS011;6518;50.930;5.344;2022-12-19T07:26:16;7.37;;;5.87;;
12900;SDS011;6518;50.930;5.344;2022-12-19T07:28:45;10.80;;;6.53;;
12900;SDS011;6518;50.930;5.344;2022-12-19T07:31:15;8.03;;;6.00;;
12900;SDS011;6518;50.930;5.344;2022-12-19T07:33:42;11.73;;;6.43;;
12900;SDS011;6518;50.930;5.344;2022-12-19T07:36:09;7.83;;;5.77;;
12900;SDS011;6518;50.930;5.344;2022-12-19T07:38:38;9.73;;;6.37;;
12900;SDS011;6518;50.930;5.344;2022-12-19T07:41:04;8.27;;;6.27;;
12900;SDS011;6518;50.930;5.344;2022-12-19T07:43:31;7.87;;;6.07;;
12900;SDS011;6518;50.930;5.344;2022-12-19T07:45:58;7.50;;;5.90;;
12900;SDS011;6518;50.930;5.344;2022-12-19T07:48:25;10.47;;;7.00;;
12900;SDS011;6518;50.930;5.344;2022-12-19T07:50:53;13.33;;;8.23;;
12900;SDS011;6518;50.930;5.344;2022-12-19T07:53:20;10.83;;;6.43;;
12900;SDS011;6518;50.930;5.344;2022-12-19T07:55:50;7.10;;;5.43;;
12900;SDS011;6518;50.930;5.344;2022-12-19T07:58:17;8.10;;;5.63;;
12900;SDS011;6518;50.930;5.344;2022-12-19T08:00:44;7.90;;;5.80;;
12900;SDS011;6518;50.930;5.344;2022-12-19T08:03:18;6.63;;;5.43;;
12900;SDS011;6518;50.930;5.344;2022-12-19T08:05:45;7.17;;;5.40;;
12900;SDS011;6518;50.930;5.344;2022-12-19T08:08:11;7.43;;;5.70;;
12900;SDS011;6518;50.930;5.344;2022-12-19T08:10:38;6.90;;;5.07;;
12900;SDS011;6518;50.930;5.344;2022-12-19T08:13:07;9.43;;;5.97;;
12900;SDS011;6518;50.930;5.344;2022-12-19T08:15:34;7.00;;;5.50;;
12900;SDS011;6518;50.930;5.344;2022-12-19T08:18:01;8.97;;;5.90;;
12900;SDS011;6518;50.930;5.344;2022-12-19T08:20:28;11.37;;;5.70;;
12900;SDS011;6518;50.930;5.344;2022-12-19T08:22:55;7.97;;;6.60;;
12900;SDS011;6518;50.930;5.344;2022-12-19T08:25:22;8.47;;;6.20;;
12900;SDS011;6518;50.930;5.344;2022-12-19T08:27:48;11.17;;;6.10;;
12900;SDS011;6518;50.930;5.344;2022-12-19T08:30:17;8.60;;;6.20;;
12900;SDS011;6518;50.930;5.344;2022-12-19T08:32:44;8.70;;;5.13;;
12900;SDS011;6518;50.930;5.344;2022-12-19T08:35:12;7.50;;;5.67;;
12900;SDS011;6518;50.930;5.344;2022-12-19T08:37:39;7.53;;;5.37;;
12900;SDS011;6518;50.930;5.344;2022-12-19T08:40:06;7.53;;;5.03;;
12900;SDS011;6518;50.930;5.344;2022-12-19T08:42:34;6.00;;;4.93;;
12900;SDS011;6518;50.930;5.344;2022-12-19T08:45:00;7.20;;;5.20;;
12900;SDS011;6518;50.930;5.344;2022-12-19T08:47:29;9.27;;;5.30;;
12900;SDS011;6518;50.930;5.344;2022-12-19T08:49:56;7.90;;;5.47;;
12900;SDS011;6518;50.930;5.344;2022-12-19T08:52:23;5.97;;;4.90;;
12900;SDS011;6518;50.930;5.344;2022-12-19T08:54:50;6.57;;;4.57;;
12900;SDS011;6518;50.930;5.344;2022-12-19T08:57:17;5.40;;;4.60;;
12900;SDS011;6518;50.930;5.344;2022-12-19T08:59:43;6.23;;;4.67;;
12900;SDS011;6518;50.930;5.344;2022-12-19T09:02:10;6.83;;;4.60;;
12900;SDS011;6518;50.930;5.344;2022-12-19T09:04:39;6.87;;;5.07;;
12900;SDS011;6518;50.930;5.344;2022-12-19T09:07:06;5.97;;;5.17;;
12900;SDS011;6518;50.930;5.344;2022-12-19T09:09:33;8.53;;;4.90;;
12900;SDS011;6518;50.930;5.344;2022-12-19T09:12:00;6.67;;;4.50;;
12900;SDS011;6518;50.930;5.344;2022-12-19T09:14:30;6.00;;;4.43;;
12900;SDS011;6518;50.930;5.344;2022-12-19T09:16:58;6.63;;;4.73;;
12900;SDS011;6518;50.930;5.344;2022-12-19T09:19:25;4.90;;;4.03;;
12900;SDS011;6518;50.930;5.344;2022-12-19T09:21:54;5.40;;;4.30;;
12900;SDS011;6518;50.930;5.344;2022-12-19T09:24:21;5.40;;;4.60;;
12900;SDS011;6518;50.930;5.344;2022-12-19T09:26:47;6.77;;;4.00;;
12900;SDS011;6518;50.930;5.344;2022-12-19T09:29:14;7.13;;;5.37;;
12900;SDS011;6518;50.930;5.344;2022-12-19T09:31:41;4.63;;;3.93;;
12900;SDS011;6518;50.930;5.344;2022-12-19T09:34:08;6.23;;;4.03;;
12900;SDS011;6518;50.930;5.344;2022-12-19T09:36:35;5.50;;;3.87;;
12900;SDS011;6518;50.930;5.344;2022-12-19T09:39:03;6.37;;;3.70;;
12900;SDS011;6518;50.930;5.344;2022-12-19T09:44:34;5.43;;;3.73;;
12900;SDS011;6518;50.930;5.344;2022-12-19T09:47:15;4.93;;;3.80;;
12900;SDS011;6518;50.930;5.344;2022-12-19T09:49:44;5.67;;;3.50;;
12900;SDS011;6518;50.930;5.344;2022-12-19T09:52:13;4.87;;;4.03;;
12900;SDS011;6518;50.930;5.344;2022-12-19T09:54:45;4.20;;;3.60;;
12900;SDS011;6518;50.930;5.344;2022-12-19T09:57:17;4.67;;;3.60;;
12900;SDS011;6518;50.930;5.344;2022-12-19T09:59:50;5.07;;;3.77;;
12900;SDS011;6518;50.930;5.344;2022-12-19T10:02:27;6.37;;;3.50;;
12900;SDS011;6518;50.930;5.344;2022-12-19T10:05:03;4.63;;;3.47;;
12900;SDS011;6518;50.930;5.344;2022-12-19T10:07:37;4.37;;;3.37;;
12900;SDS011;6518;50.930;5.344;2022-12-19T10:10:08;5.17;;;3.30;;
12900;SDS011;6518;50.930;5.344;2022-12-19T10:12:53;5.57;;;3.80;;
12900;SDS011;6518;50.930;5.344;2022-12-19T10:15:36;8.10;;;3.63;;
12900;SDS011;6518;50.930;5.344;2022-12-19T10:18:12;8.07;;;3.73;;
12900;SDS011;6518;50.930;5.344;2022-12-19T10:20:51;5.07;;;3.57;;
12900;SDS011;6518;50.930;5.344;2022-12-19T10:23:40;4.37;;;3.43;;
12900;SDS011;6518;50.930;5.344;2022-12-19T10:26:25;5.87;;;3.60;;
12900;SDS011;6518;50.930;5.344;2022-12-19T10:29:03;4.30;;;3.30;;
12900;SDS011;6518;50.930;5.344;2022-12-19T10:31:40;4.40;;;3.40;;
12900;SDS011;6518;50.930;5.344;2022-12-19T10:34:18;4.47;;;3.23;;
12900;SDS011;6518;50.930;5.344;2022-12-19T10:36:48;5.80;;;3.17;;
12900;SDS011;6518;50.930;5.344;2022-12-19T10:39:22;4.20;;;3.00;;
12900;SDS011;6518;50.930;5.344;2022-12-19T10:41:58;5.80;;;3.50;;
12900;SDS011;6518;50.930;5.344;2022-12-19T10:44:34;4.30;;;3.23;;
12900;SDS011;6518;50.930;5.344;2022-12-19T10:47:06;5.17;;;3.17;;
12900;SDS011;6518;50.930;5.344;2022-12-19T10:49:39;4.97;;;3.03;;
12900;SDS011;6518;50.930;5.344;2022-12-19T10:52:07;5.37;;;3.17;;
12900;SDS011;6518;50.930;5.344;2022-12-19T10:54:38;5.23;;;3.43;;
12900;SDS011;6518;50.930;5.344;2022-12-19T10:57:23;4.60;;;3.10;;
12900;SDS011;6518;50.930;5.344;2022-12-19T10:59:55;4.93;;;3.30;;
12900;SDS011;6518;50.930;5.344;2022-12-19T11:02:29;4.60;;;3.63;;
12900;SDS011;6518;50.930;5.344;2022-12-19T11:05:00;3.70;;;3.03;;
12900;SDS011;6518;50.930;5.344;2022-12-19T11:07:27;4.70;;;3.10;;
12900;SDS011;6518;50.930;5.344;2022-12-19T11:09:54;4.13;;;3.30;;
12900;SDS011;6518;50.930;5.344;2022-12-19T11:12:24;4.23;;;3.20;;
12900;SDS011;6518;50.930;5.344;2022-12-19T11:14:52;3.43;;;2.97;;
12900;SDS011;6518;50.930;5.344;2022-12-19T11:17:38;4.97;;;3.20;;
12900;SDS011;6518;50.930;5.344;2022-12-19T11:47:39;5.43;;;3.17;;
12900;SDS011;6518;50.930;5.344;2022-12-19T11:50:10;4.13;;;3.33;;
12900;SDS011;6518;50.930;5.344;2022-12-19T12:10:49;5.47;;;3.40;;
12900;SDS011;6518;50.930;5.344;2022-12-19T12:13:23;5.47;;;3.13;;
12900;SDS011;6518;50.930;5.344;2022-12-19T12:15:58;3.97;;;3.20;;
12900;SDS011;6518;50.930;5.344;2022-12-19T12:18:35;3.70;;;3.00;;
12900;SDS011;6518;50.930;5.344;2022-12-19T12:21:18;3.23;;;2.90;;
12900;SDS011;6518;50.930;5.344;2022-12-19T12:23:54;4.83;;;2.77;;
12900;SDS011;6518;50.930;5.344;2022-12-19T12:26:39;4.20;;;3.40;;
12900;SDS011;6518;50.930;5.344;2022-12-19T12:29:13;3.53;;;2.83;;
12900;SDS011;6518;50.930;5.344;2022-12-19T12:31:51;3.67;;;2.70;;
12900;SDS011;6518;50.930;5.344;2022-12-19T12:34:36;5.10;;;2.60;;
12900;SDS011;6518;50.930;5.344;2022-12-19T12:37:25;4.97;;;2.70;;
12900;SDS011;6518;50.930;5.344;2022-12-19T12:40:03;3.27;;;2.40;;
12900;SDS011;6518;50.930;5.344;2022-12-19T12:42:52;3.17;;;2.60;;
12900;SDS011;6518;50.930;5.344;2022-12-19T12:45:30;3.27;;;2.57;;
12900;SDS011;6518;50.930;5.344;2022-12-19T12:48:02;4.23;;;3.00;;
12900;SDS011;6518;50.930;5.344;2022-12-19T12:50:37;4.77;;;2.50;;
12900;SDS011;6518;50.930;5.344;2022-12-19T12:53:06;3.23;;;2.50;;
12900;SDS011;6518;50.930;5.344;2022-12-19T12:55:36;4.23;;;2.77;;
12900;SDS011;6518;50.930;5.344;2022-12-19T13:01:08;3.97;;;2.80;;
12900;SDS011;6518;50.930;5.344;2022-12-19T13:03:39;3.60;;;2.90;;
12900;SDS011;6518;50.930;5.344;2022-12-19T13:06:17;5.13;;;2.60;;
12900;SDS011;6518;50.930;5.344;2022-12-19T13:08:50;4.13;;;3.23;;
12900;SDS011;6518;50.930;5.344;2022-12-19T13:11:33;4.37;;;2.60;;
12900;SDS011;6518;50.930;5.344;2022-12-19T13:14:40;3.97;;;2.80;;
12900;SDS011;6518;50.930;5.344;2022-12-19T13:17:11;2.97;;;2.20;;
12900;SDS011;6518;50.930;5.344;2022-12-19T13:19:51;4.43;;;2.63;;
12900;SDS011;6518;50.930;5.344;2022-12-19T13:22:35;3.93;;;2.40;;
12900;SDS011;6518;50.930;5.344;2022-12-19T13:28:36;5.73;;;2.57;;
12900;SDS011;6518;50.930;5.344;2022-12-19T13:31:16;5.07;;;2.50;;
12900;SDS011;6518;50.930;5.344;2022-12-19T13:36:44;3.00;;;2.33;;
12900;SDS011;6518;50.930;5.344;2022-12-19T13:39:29;3.93;;;2.40;;
12900;SDS011;6518;50.930;5.344;2022-12-19T13:42:00;3.70;;;2.50;;
12900;SDS011;6518;50.930;5.344;2022-12-19T13:44:57;4.20;;;2.50;;
12900;SDS011;6518;50.930;5.344;2022-12-19T13:47:31;4.30;;;2.80;;
12900;SDS011;6518;50.930;5.344;2022-12-19T13:50:04;3.60;;;2.40;;
12900;SDS011;6518;50.930;5.344;2022-12-19T13:52:32;3.57;;;2.40;;
12900;SDS011;6518;50.930;5.344;2022-12-19T13:54:59;4.10;;;2.80;;
12900;SDS011;6518;50.930;5.344;2022-12-19T13:57:27;3.30;;;2.60;;
12900;SDS011;6518;50.930;5.344;2022-12-19T13:59:56;4.13;;;2.83;;
12900;SDS011;6518;50.930;5.344;2022-12-19T14:02:29;4.23;;;2.40;;
12900;SDS011;6518;50.930;5.344;2022-12-19T14:04:58;4.00;;;2.80;;
12900;SDS011;6518;50.930;5.344;2022-12-19T14:07:35;3.57;;;2.70;;
12900;SDS011;6518;50.930;5.344;2022-12-19T14:10:05;4.03;;;2.60;;
12900;SDS011;6518;50.930;5.344;2022-12-19T14:12:40;4.00;;;2.47;;
12900;SDS011;6518;50.930;5.344;2022-12-19T14:15:28;3.90;;;2.77;;
12900;SDS011;6518;50.930;5.344;2022-12-19T14:17:58;3.63;;;2.40;;
12900;SDS011;6518;50.930;5.344;2022-12-19T14:20:26;5.60;;;3.13;;
12900;SDS011;6518;50.930;5.344;2022-12-19T14:22:57;3.27;;;2.30;;
12900;SDS011;6518;50.930;5.344;2022-12-19T14:25:25;4.47;;;2.80;;
12900;SDS011;6518;50.930;5.344;2022-12-19T14:28:00;4.30;;;2.43;;
12900;SDS011;6518;50.930;5.344;2022-12-19T14:30:29;3.90;;;2.60;;
12900;SDS011;6518;50.930;5.344;2022-12-19T14:33:03;3.87;;;2.63;;
12900;SDS011;6518;50.930;5.344;2022-12-19T14:35:33;4.03;;;2.60;;
12900;SDS011;6518;50.930;5.344;2022-12-19T14:38:04;5.20;;;2.67;;
12900;SDS011;6518;50.930;5.344;2022-12-19T14:40:35;3.40;;;2.60;;
12900;SDS011;6518;50.930;5.344;2022-12-19T14:43:07;3.50;;;2.70;;
12900;SDS011;6518;50.930;5.344;2022-12-19T14:46:08;2.77;;;2.50;;
12900;SDS011;6518;50.930;5.344;2022-12-19T14:48:43;3.73;;;2.80;;
12900;SDS011;6518;50.930;5.344;2022-12-19T14:51:14;5.10;;;2.97;;
12900;SDS011;6518;50.930;5.344;2022-12-19T14:54:04;4.23;;;2.67;;
12900;SDS011;6518;50.930;5.344;2022-12-19T14:56:41;4.00;;;2.60;;
12900;SDS011;6518;50.930;5.344;2022-12-19T14:59:29;3.60;;;2.50;;
12900;SDS011;6518;50.930;5.344;2022-12-19T15:02:03;3.77;;;2.50;;
12900;SDS011;6518;50.930;5.344;2022-12-19T15:04:41;4.03;;;2.40;;
12900;SDS011;6518;50.930;5.344;2022-12-19T15:07:13;4.60;;;2.60;;
12900;SDS011;6518;50.930;5.344;2022-12-19T15:09:49;3.80;;;2.73;;
12900;SDS011;6518;50.930;5.344;2022-12-19T15:12:24;4.80;;;2.80;;
12900;SDS011;6518;50.930;5.344;2022-12-19T15:15:16;4.80;;;2.43;;
12900;SDS011;6518;50.930;5.344;2022-12-19T15:17:45;4.13;;;2.60;;
12900;SDS011;6518;50.930;5.344;2022-12-19T15:20:13;3.20;;;2.70;;
12900;SDS011;6518;50.930;5.344;2022-12-19T15:22:40;4.77;;;2.70;;
12900;SDS011;6518;50.930;5.344;2022-12-19T15:25:11;4.80;;;2.70;;
12900;SDS011;6518;50.930;5.344;2022-12-19T15:27:40;5.30;;;2.40;;
12900;SDS011;6518;50.930;5.344;2022-12-19T15:30:11;3.67;;;2.53;;
12900;SDS011;6518;50.930;5.344;2022-12-19T15:32:41;4.50;;;2.60;;
12900;SDS011;6518;50.930;5.344;2022-12-19T15:35:10;3.00;;;2.50;;
12900;SDS011;6518;50.930;5.344;2022-12-19T15:37:38;4.40;;;2.70;;
12900;SDS011;6518;50.930;5.344;2022-12-19T15:40:05;5.40;;;2.93;;
12900;SDS011;6518;50.930;5.344;2022-12-19T15:42:36;3.53;;;2.53;;
12900;SDS011;6518;50.930;5.344;2022-12-19T15:45:03;4.60;;;2.80;;
12900;SDS011;6518;50.930;5.344;2022-12-19T15:47:32;4.13;;;2.67;;
12900;SDS011;6518;50.930;5.344;2022-12-19T15:50:08;3.40;;;2.77;;
12900;SDS011;6518;50.930;5.344;2022-12-19T15:52:41;4.87;;;2.80;;
12900;SDS011;6518;50.930;5.344;2022-12-19T15:55:10;3.23;;;2.27;;
12900;SDS011;6518;50.930;5.344;2022-12-19T15:57:40;2.90;;;2.57;;
12900;SDS011;6518;50.930;5.344;2022-12-19T16:00:14;5.63;;;3.00;;
12900;SDS011;6518;50.930;5.344;2022-12-19T16:02:43;5.70;;;3.70;;
12900;SDS011;6518;50.930;5.344;2022-12-19T16:05:10;4.87;;;3.17;;
12900;SDS011;6518;50.930;5.344;2022-12-19T16:07:37;4.27;;;3.00;;
12900;SDS011;6518;50.930;5.344;2022-12-19T16:10:05;3.57;;;2.80;;
12900;SDS011;6518;50.930;5.344;2022-12-19T16:12:35;4.07;;;2.67;;
12900;SDS011;6518;50.930;5.344;2022-12-19T16:15:09;3.57;;;2.83;;
12900;SDS011;6518;50.930;5.344;2022-12-19T16:17:40;4.47;;;2.80;;